createdAt,value
2019-03-28T00:01:48.714Z,8.80
2019-03-28T00:25:19.964Z,9.20
2019-03-28T00:27:46.365Z,8.13
2019-03-28T00:30:13.916Z,8.87
2019-03-28T00:32:40.143Z,8.53
2019-03-28T00:35:06.668Z,8.63
2019-03-28T00:37:32.886Z,9.03
2019-03-28T00:39:59.111Z,8.57
2019-03-28T00:42:25.671Z,8.53
2019-03-28T00:44:52.214Z,8.50
2019-03-28T00:47:18.855Z,9.43
2019-03-28T00:49:45.102Z,9.20
2019-03-28T00:52:11.394Z,9.20
2019-03-28T00:54:37.689Z,10.10
2019-03-28T00:57:03.907Z,10.07
2019-03-28T00:59:30.151Z,10.57
2019-03-28T01:01:56.381Z,9.47
2019-03-28T01:04:22.591Z,9.87
2019-03-28T01:06:48.847Z,11.17
2019-03-28T01:09:15.081Z,8.57
2019-03-28T01:11:41.644Z,8.70
2019-03-28T01:14:08.283Z,9.53
2019-03-28T01:16:34.754Z,9.70
2019-03-28T01:19:00.986Z,9.23
2019-03-28T01:21:27.219Z,9.33
2019-03-28T01:23:53.455Z,9.07
2019-03-28T01:26:19.682Z,10.10
2019-03-28T01:28:45.915Z,9.00
2019-03-28T01:31:12.151Z,8.67
2019-03-28T01:33:38.727Z,9.80
2019-03-28T01:36:04.995Z,8.90
2019-03-28T01:38:31.224Z,8.90
2019-03-28T01:40:57.822Z,9.57
2019-03-28T01:43:24.079Z,10.23
2019-03-28T01:45:50.302Z,9.30
2019-03-28T01:48:16.555Z,9.70
2019-03-28T01:50:42.796Z,8.70
2019-03-28T01:53:09.385Z,8.40
2019-03-28T01:55:35.602Z,10.43
2019-03-28T01:58:01.859Z,9.70
2019-03-28T02:00:28.192Z,9.50
2019-03-28T02:02:54.701Z,9.90
2019-03-28T02:05:21.456Z,9.80
2019-03-28T02:07:47.985Z,9.57
2019-03-28T02:10:14.831Z,9.93
2019-03-28T02:12:41.042Z,9.87
2019-03-28T02:15:08.122Z,10.10
2019-03-28T02:17:34.344Z,10.23
2019-03-28T02:20:00.563Z,11.33
2019-03-28T02:22:27.099Z,9.43
2019-03-28T02:24:53.632Z,10.00
2019-03-28T02:27:24.228Z,9.77
2019-03-28T02:29:48.243Z,10.37
2019-03-28T02:32:14.500Z,11.07
2019-03-28T02:34:40.730Z,10.40
2019-03-28T02:37:07.229Z,10.13
2019-03-28T02:39:33.468Z,10.93
2019-03-28T02:42:00.023Z,10.17
2019-03-28T02:44:26.269Z,10.33
2019-03-28T02:46:52.485Z,10.20
2019-03-28T02:49:19.726Z,11.90
2019-03-28T02:51:46.653Z,10.47
2019-03-28T02:54:12.853Z,9.60
2019-03-28T02:56:39.120Z,11.07
2019-03-28T02:59:05.476Z,10.83
2019-03-28T03:01:32.075Z,10.60
2019-03-28T03:03:58.353Z,9.77
2019-03-28T03:06:24.562Z,10.20
2019-03-28T03:08:50.792Z,11.43
2019-03-28T03:11:17.123Z,10.80
2019-03-28T03:13:43.370Z,11.10
2019-03-28T03:16:09.585Z,9.80
2019-03-28T03:18:35.803Z,11.13
2019-03-28T03:21:02.686Z,11.17
2019-03-28T03:23:28.900Z,10.10
2019-03-28T03:25:55.139Z,10.20
2019-03-28T03:28:21.392Z,10.67
2019-03-28T03:30:47.963Z,10.07
2019-03-28T03:33:14.219Z,11.03
2019-03-28T03:35:40.438Z,11.13
2019-03-28T03:38:06.700Z,10.97
2019-03-28T03:40:32.897Z,11.10
2019-03-28T03:42:59.221Z,10.80
2019-03-28T03:45:25.457Z,11.20
2019-03-28T03:47:51.685Z,11.40
2019-03-28T03:50:28.060Z,11.77
2019-03-28T03:52:54.279Z,11.67
2019-03-28T03:55:20.518Z,11.40
2019-03-28T03:57:46.735Z,11.27
2019-03-28T04:00:16.762Z,11.63
2019-03-28T04:02:42.999Z,13.07
2019-03-28T04:05:09.507Z,13.00
2019-03-28T04:07:35.778Z,13.33
2019-03-28T04:10:03.584Z,10.97
2019-03-28T04:12:29.836Z,11.43
2019-03-28T04:14:56.358Z,13.40
2019-03-28T04:17:22.581Z,11.90
2019-03-28T04:19:48.812Z,12.33
2019-03-28T04:22:15.057Z,12.00
2019-03-28T04:24:41.271Z,12.37
2019-03-28T04:27:07.528Z,11.90
2019-03-28T04:29:33.720Z,11.20
2019-03-28T04:32:00.262Z,12.53
2019-03-28T04:34:26.503Z,12.20
2019-03-28T04:36:52.715Z,11.30
2019-03-28T04:39:18.963Z,13.20
2019-03-28T04:41:45.195Z,12.37
2019-03-28T04:44:11.430Z,12.50
2019-03-28T04:46:37.652Z,12.83
2019-03-28T04:49:04.010Z,12.57
2019-03-28T04:51:30.590Z,12.37
2019-03-28T04:53:56.827Z,13.00
2019-03-28T04:56:23.045Z,12.90
2019-03-28T04:58:49.429Z,12.33
2019-03-28T05:01:16.127Z,13.63
2019-03-28T05:03:42.383Z,13.33
2019-03-28T05:06:08.713Z,12.80
2019-03-28T05:08:34.927Z,13.90
2019-03-28T05:11:01.448Z,12.27
2019-03-28T05:13:27.662Z,12.50
2019-03-28T05:15:54.210Z,12.77
2019-03-28T05:18:20.751Z,11.77
2019-03-28T05:20:47.077Z,13.00
2019-03-28T05:23:14.313Z,13.33
2019-03-28T05:25:40.883Z,12.97
2019-03-28T05:28:07.123Z,15.40
2019-03-28T05:30:33.351Z,14.20
2019-03-28T05:32:59.591Z,14.37
2019-03-28T05:35:26.378Z,13.67
2019-03-28T05:37:52.642Z,14.20
2019-03-28T05:40:18.863Z,14.00
2019-03-28T05:42:45.406Z,13.90
2019-03-28T05:45:11.813Z,14.20
2019-03-28T05:47:38.058Z,14.23
2019-03-28T05:50:05.303Z,15.20
2019-03-28T05:52:32.441Z,14.17
2019-03-28T05:54:58.670Z,14.20
2019-03-28T05:57:24.894Z,14.57
2019-03-28T05:59:51.111Z,15.07
2019-03-28T06:02:17.343Z,14.00
2019-03-28T06:04:43.911Z,16.20
2019-03-28T06:07:10.386Z,15.27
2019-03-28T06:09:40.043Z,13.80
2019-03-28T06:12:05.136Z,14.80
2019-03-28T06:14:31.362Z,14.60
2019-03-28T06:16:57.589Z,14.50
2019-03-28T06:19:23.818Z,13.60
2019-03-28T06:21:50.043Z,14.37
2019-03-28T06:24:16.285Z,13.00
2019-03-28T06:26:42.542Z,13.60
2019-03-28T06:29:08.867Z,13.77
2019-03-28T06:31:35.087Z,13.50
2019-03-28T06:34:01.345Z,13.60
2019-03-28T06:36:27.553Z,12.47
2019-03-28T06:38:53.800Z,12.57
2019-03-28T06:41:20.324Z,13.10
2019-03-28T06:43:46.551Z,12.60
2019-03-28T06:46:12.774Z,14.40
2019-03-28T06:48:39.027Z,13.10
2019-03-28T06:51:05.317Z,12.53
2019-03-28T06:53:31.647Z,12.80
2019-03-28T06:55:58.195Z,12.43
2019-03-28T06:58:24.423Z,13.00
2019-03-28T07:00:50.658Z,12.03
2019-03-28T07:03:17.196Z,13.50
2019-03-28T07:05:43.733Z,12.00
2019-03-28T07:08:09.959Z,13.43
2019-03-28T07:10:36.519Z,12.70
2019-03-28T07:13:02.952Z,12.80
2019-03-28T07:15:29.181Z,13.23
2019-03-28T07:17:56.498Z,12.30
2019-03-28T07:20:22.716Z,12.83
2019-03-28T07:22:48.955Z,12.60
2019-03-28T07:25:15.181Z,13.30
2019-03-28T07:27:41.382Z,13.17
2019-03-28T07:30:10.440Z,13.43
2019-03-28T07:32:36.655Z,11.50
2019-03-28T07:35:05.351Z,13.07
2019-03-28T07:37:31.579Z,13.20
2019-03-28T07:39:57.793Z,12.83
2019-03-28T07:42:24.030Z,11.80
2019-03-28T07:44:50.252Z,12.47
2019-03-28T07:47:16.564Z,11.80
2019-03-28T07:49:42.826Z,11.80
2019-03-28T07:52:09.079Z,13.30
2019-03-28T07:54:35.282Z,11.90
2019-03-28T07:57:01.573Z,11.60
2019-03-28T07:59:27.782Z,11.20
2019-03-28T08:01:54.023Z,12.60
2019-03-28T08:04:20.263Z,12.63
2019-03-28T08:06:50.223Z,13.77
2019-03-28T08:09:17.450Z,12.37
2019-03-28T08:11:42.567Z,13.03
2019-03-28T08:14:08.805Z,12.63
2019-03-28T08:16:35.019Z,12.60
2019-03-28T08:19:01.547Z,12.23
2019-03-28T08:21:27.758Z,13.50
2019-03-28T08:23:53.992Z,13.73
2019-03-28T08:26:20.512Z,13.70
2019-03-28T08:28:46.739Z,13.13
2019-03-28T08:31:12.948Z,13.00
2019-03-28T08:33:41.495Z,13.43
2019-03-28T08:36:07.911Z,12.40
2019-03-28T08:38:37.970Z,12.00
2019-03-28T08:41:06.984Z,12.27
2019-03-28T08:43:32.226Z,12.20
2019-03-28T08:45:58.534Z,13.03
2019-03-28T08:48:24.763Z,13.43
2019-03-28T08:50:50.990Z,13.73
2019-03-28T08:53:17.230Z,13.20
2019-03-28T08:55:43.442Z,15.10
2019-03-28T08:58:09.675Z,14.37
2019-03-28T09:00:50.936Z,14.23
2019-03-28T09:03:03.938Z,15.10
2019-03-28T09:05:30.540Z,17.53
2019-03-28T09:07:56.770Z,13.30
2019-03-28T09:10:23.303Z,13.50
2019-03-28T09:12:49.553Z,12.60
2019-03-28T09:15:15.979Z,13.67
2019-03-28T09:17:42.605Z,15.10
2019-03-28T09:20:09.230Z,15.90
2019-03-28T09:22:38.704Z,13.83
2019-03-28T09:25:05.489Z,13.23
2019-03-28T09:27:31.734Z,13.33
2019-03-28T09:29:57.986Z,13.20
2019-03-28T09:32:24.835Z,14.37
2019-03-28T09:34:51.650Z,12.20
2019-03-28T09:37:17.882Z,12.30
2019-03-28T09:39:44.402Z,12.53
2019-03-28T09:42:10.834Z,13.63
2019-03-28T09:44:37.018Z,13.50
2019-03-28T09:47:03.354Z,11.70
2019-03-28T09:49:29.927Z,13.30
2019-03-28T09:51:56.157Z,11.60
2019-03-28T09:54:22.409Z,12.67
2019-03-28T09:57:08.544Z,11.40
2019-03-28T09:59:34.766Z,11.67
2019-03-28T10:02:01.374Z,11.40
2019-03-28T10:04:28.290Z,12.23
2019-03-28T10:06:54.522Z,14.73
2019-03-28T10:09:21.030Z,12.93
2019-03-28T10:11:47.270Z,12.73
2019-03-28T10:14:13.486Z,12.50
2019-03-28T10:16:40.401Z,12.60
2019-03-28T10:19:06.760Z,12.40
2019-03-28T10:21:32.975Z,12.43
2019-03-28T10:23:59.555Z,11.90
2019-03-28T10:26:25.762Z,12.30
2019-03-28T10:28:52.003Z,12.60
2019-03-28T10:31:18.225Z,12.27
2019-03-28T10:33:44.468Z,13.10
2019-03-28T10:36:10.679Z,11.53
2019-03-28T10:38:36.935Z,13.27
2019-03-28T10:41:03.147Z,12.53
2019-03-28T10:43:29.359Z,12.30
2019-03-28T10:45:55.590Z,11.23
2019-03-28T10:48:23.438Z,11.40
2019-03-28T10:50:49.882Z,12.37
2019-03-28T10:53:16.157Z,10.90
2019-03-28T10:55:42.813Z,12.10
2019-03-28T10:58:18.243Z,9.90
2019-03-28T11:00:37.378Z,9.70
2019-03-28T11:03:04.760Z,9.00
2019-03-28T11:05:31.030Z,9.03
2019-03-28T11:07:57.258Z,9.20
2019-03-28T11:10:23.495Z,8.23
2019-03-28T11:12:50.074Z,8.30
2019-03-28T11:15:16.364Z,8.70
2019-03-28T11:17:42.580Z,8.40
2019-03-28T11:20:09.866Z,8.80
2019-03-28T11:22:36.322Z,8.43
2019-03-28T11:25:04.369Z,7.83
2019-03-28T11:27:30.586Z,7.07
2019-03-28T11:29:56.798Z,6.27
2019-03-28T11:32:23.034Z,6.80
2019-03-28T11:34:49.262Z,6.37
2019-03-28T11:37:25.999Z,7.50
2019-03-28T11:39:43.507Z,6.57
2019-03-28T11:42:09.763Z,7.33
2019-03-28T11:44:35.977Z,6.40
2019-03-28T11:47:02.342Z,6.50
2019-03-28T11:49:28.544Z,6.40
2019-03-28T11:51:55.159Z,6.10
2019-03-28T11:54:21.702Z,5.83
2019-03-28T11:56:47.947Z,7.33
2019-03-28T11:59:14.466Z,7.87
2019-03-28T12:01:40.701Z,7.13
2019-03-28T12:04:06.930Z,6.10
2019-03-28T12:06:33.192Z,6.07
2019-03-28T12:08:59.398Z,5.93
2019-03-28T12:11:25.630Z,5.70
2019-03-28T12:13:51.854Z,6.97
2019-03-28T12:16:18.097Z,6.57
2019-03-28T12:18:44.311Z,7.00
2019-03-28T12:21:10.518Z,7.83
2019-03-28T12:23:36.768Z,8.10
2019-03-28T12:26:03.097Z,7.50
2019-03-28T12:28:29.330Z,10.20
2019-03-28T12:30:55.559Z,8.47
2019-03-28T12:33:21.813Z,8.03
2019-03-28T12:35:48.021Z,8.80
2019-03-28T12:38:14.269Z,7.73
2019-03-28T12:40:40.500Z,7.80
2019-03-28T12:43:06.703Z,8.60
2019-03-28T12:45:32.951Z,7.57
2019-03-28T12:47:59.457Z,7.73
2019-03-28T12:50:25.717Z,10.47
2019-03-28T12:52:51.923Z,9.10
2019-03-28T12:55:18.178Z,9.83
2019-03-28T12:57:48.113Z,7.50
2019-03-28T13:00:13.515Z,7.20
2019-03-28T13:02:39.769Z,6.70
2019-03-28T13:05:06.779Z,6.90
2019-03-28T13:07:33.378Z,6.90
2019-03-28T13:09:59.606Z,7.27
2019-03-28T13:12:25.823Z,8.40
2019-03-28T13:14:52.055Z,7.37
2019-03-28T13:17:18.267Z,7.73
2019-03-28T13:19:44.532Z,6.83
2019-03-28T13:22:10.747Z,6.77
2019-03-28T13:24:37.078Z,6.97
2019-03-28T13:27:03.277Z,6.43
2019-03-28T13:29:29.487Z,7.13
2019-03-28T13:31:55.723Z,7.40
2019-03-28T13:34:21.947Z,6.40
2019-03-28T13:36:48.218Z,7.20
2019-03-28T13:39:14.433Z,5.83
2019-03-28T13:41:40.651Z,8.27
2019-03-28T13:44:06.891Z,7.47
2019-03-28T13:46:33.119Z,6.17
2019-03-28T13:48:59.347Z,6.53
2019-03-28T13:51:25.571Z,6.57
2019-03-28T13:53:52.170Z,5.93
2019-03-28T13:56:18.642Z,5.20
2019-03-28T13:58:45.610Z,5.70
2019-03-28T14:01:11.843Z,5.83
2019-03-28T14:03:38.039Z,6.80
2019-03-28T14:06:04.276Z,7.03
2019-03-28T14:08:30.503Z,6.60
2019-03-28T14:10:56.848Z,6.10
2019-03-28T14:13:23.058Z,5.93
2019-03-28T14:15:49.316Z,6.80
2019-03-28T14:18:15.505Z,7.27
2019-03-28T14:20:41.746Z,7.30
2019-03-28T14:23:07.959Z,9.30
2019-03-28T14:25:34.174Z,8.40
2019-03-28T14:28:00.415Z,7.80
2019-03-28T14:30:26.632Z,8.90
2019-03-28T14:32:53.959Z,8.60
2019-03-28T14:35:20.582Z,8.27
2019-03-28T14:37:46.811Z,10.23
2019-03-28T14:40:13.555Z,8.70
2019-03-28T14:42:40.813Z,8.40
2019-03-28T14:45:07.420Z,8.93
2019-03-28T14:47:33.974Z,8.30
2019-03-28T14:50:00.282Z,8.43
2019-03-28T14:52:26.612Z,8.00
2019-03-28T14:54:52.806Z,7.90
2019-03-28T14:57:19.708Z,7.10
2019-03-28T14:59:46.225Z,7.67
2019-03-28T15:02:12.431Z,7.20
2019-03-28T15:04:38.670Z,7.13
2019-03-28T15:07:07.394Z,7.30
2019-03-28T15:09:34.011Z,6.50
2019-03-28T15:12:00.566Z,7.27
2019-03-28T15:14:26.791Z,7.00
2019-03-28T15:16:53.022Z,6.60
2019-03-28T15:19:19.291Z,6.67
2019-03-28T15:21:45.535Z,6.50
2019-03-28T15:24:11.750Z,6.40
2019-03-28T15:26:38.164Z,5.53
2019-03-28T15:29:04.393Z,5.60
2019-03-28T15:31:30.631Z,7.73
2019-03-28T15:33:56.839Z,6.70
2019-03-28T15:36:23.401Z,6.40
2019-03-28T15:38:49.686Z,6.47
2019-03-28T15:41:15.903Z,5.83
2019-03-28T15:43:42.143Z,6.63
2019-03-28T15:46:08.355Z,6.50
2019-03-28T15:48:35.569Z,5.70
2019-03-28T15:51:02.375Z,6.47
2019-03-28T15:53:28.603Z,6.20
2019-03-28T15:55:54.820Z,6.37
2019-03-28T15:58:23.472Z,6.70
2019-03-28T16:00:49.552Z,6.40
2019-03-28T16:03:15.782Z,7.20
2019-03-28T16:05:41.998Z,6.37
2019-03-28T16:08:08.246Z,6.70
2019-03-28T16:10:34.455Z,5.83
2019-03-28T16:13:00.670Z,5.37
2019-03-28T16:15:26.916Z,5.10
2019-03-28T16:17:53.119Z,6.10
2019-03-28T16:20:19.372Z,5.57
2019-03-28T16:22:45.574Z,5.60
2019-03-28T16:25:11.922Z,5.47
2019-03-28T16:27:38.131Z,5.60
2019-03-28T16:30:09.514Z,6.07
2019-03-28T16:32:36.047Z,6.23
2019-03-28T16:35:04.471Z,5.13
2019-03-28T16:37:30.699Z,5.50
2019-03-28T16:39:56.917Z,5.70
2019-03-28T16:42:23.156Z,5.67
2019-03-28T16:44:49.375Z,5.87
2019-03-28T16:47:15.598Z,6.17
2019-03-28T16:49:41.858Z,5.97
2019-03-28T16:52:08.434Z,7.30
2019-03-28T16:54:34.999Z,6.27
2019-03-28T16:57:01.218Z,5.90
2019-03-28T16:59:27.432Z,5.30
2019-03-28T17:01:53.668Z,4.23
2019-03-28T17:04:21.356Z,4.47
2019-03-28T17:06:48.424Z,4.90
2019-03-28T17:09:14.741Z,3.80
2019-03-28T17:11:40.983Z,5.23
2019-03-28T17:14:07.467Z,6.50
2019-03-28T17:16:33.999Z,5.83
2019-03-28T17:19:00.535Z,5.47
2019-03-28T17:21:26.780Z,5.83
2019-03-28T17:23:53.811Z,4.70
2019-03-28T17:26:20.102Z,5.97
2019-03-28T17:28:46.347Z,9.67
2019-03-28T17:31:12.554Z,7.63
2019-03-28T17:33:38.803Z,6.00
2019-03-28T17:36:05.122Z,5.50
2019-03-28T17:38:31.362Z,6.00
2019-03-28T17:40:57.940Z,8.17
2019-03-28T17:43:24.176Z,8.27
2019-03-28T17:45:50.526Z,7.53
2019-03-28T17:48:17.223Z,7.73
2019-03-28T17:50:43.782Z,7.10
2019-03-28T17:53:10.323Z,7.93
2019-03-28T17:55:36.576Z,7.57
2019-03-28T17:58:03.476Z,9.10
2019-03-28T18:00:29.714Z,8.97
2019-03-28T18:03:08.542Z,8.30
2019-03-28T18:05:24.231Z,7.57
2019-03-28T18:07:50.661Z,7.90
2019-03-28T18:10:17.175Z,7.90
2019-03-28T18:12:43.398Z,7.90
2019-03-28T18:15:10.026Z,6.57
2019-03-28T18:17:36.290Z,7.13
2019-03-28T18:20:04.759Z,6.07
2019-03-28T18:22:31.209Z,5.77
2019-03-28T18:24:57.431Z,6.70
2019-03-28T18:27:23.638Z,6.20
2019-03-28T18:29:49.870Z,5.80
2019-03-28T18:32:16.082Z,5.73
2019-03-28T18:34:42.338Z,6.30
2019-03-28T18:37:08.898Z,4.90
2019-03-28T18:39:35.114Z,5.47
2019-03-28T18:42:01.353Z,5.60
2019-03-28T18:44:27.870Z,6.07
2019-03-28T18:46:54.102Z,6.00
2019-03-28T18:49:20.631Z,6.63
2019-03-28T18:51:47.166Z,6.63
2019-03-28T18:54:13.411Z,5.87
2019-03-28T18:56:39.654Z,5.60
2019-03-28T18:59:05.950Z,6.60
2019-03-28T19:01:32.522Z,6.40
2019-03-28T19:03:59.148Z,6.47
2019-03-28T19:06:25.665Z,6.30
2019-03-28T19:08:51.921Z,7.70
2019-03-28T19:11:18.130Z,7.03
2019-03-28T19:13:44.350Z,6.87
2019-03-28T19:16:11.019Z,7.00
2019-03-28T19:18:37.357Z,8.23
2019-03-28T19:21:03.882Z,6.97
2019-03-28T19:23:30.390Z,8.00
2019-03-28T19:25:56.660Z,7.20
2019-03-28T19:28:28.778Z,6.17
2019-03-28T19:30:51.263Z,6.37
2019-03-28T19:33:17.501Z,5.97
2019-03-28T19:35:45.015Z,6.00
2019-03-28T19:38:11.258Z,6.13
2019-03-28T19:40:37.578Z,6.50
2019-03-28T19:43:04.343Z,6.80
2019-03-28T19:45:35.641Z,6.90
2019-03-28T19:48:01.741Z,7.00
2019-03-28T19:50:29.425Z,7.47
2019-03-28T19:52:55.874Z,6.47
2019-03-28T19:55:22.710Z,7.17
2019-03-28T19:57:49.266Z,6.30
2019-03-28T20:00:15.698Z,6.80
2019-03-28T20:02:41.934Z,6.00
2019-03-28T20:05:08.878Z,8.27
2019-03-28T20:07:35.418Z,6.57
2019-03-28T20:10:10.839Z,6.60
2019-03-28T20:12:31.144Z,6.00
2019-03-28T20:15:00.151Z,7.13
2019-03-28T20:17:25.923Z,6.57
2019-03-28T20:19:52.161Z,6.70
2019-03-28T20:22:18.387Z,6.50
2019-03-28T20:24:44.979Z,7.33
2019-03-28T20:27:11.194Z,7.13
2019-03-28T20:29:39.911Z,6.53
2019-03-28T20:32:08.089Z,7.17
2019-03-28T20:34:33.502Z,7.87
2019-03-28T20:37:01.146Z,7.70
2019-03-28T20:39:27.359Z,6.60
2019-03-28T20:41:53.602Z,7.07
2019-03-28T20:44:19.827Z,7.20
2019-03-28T20:46:46.072Z,7.40
2019-03-28T20:49:12.282Z,8.37
2019-03-28T20:51:38.541Z,7.87
2019-03-28T20:54:07.671Z,7.23
2019-03-28T20:56:32.776Z,8.20
2019-03-28T20:58:59.007Z,8.70
2019-03-28T21:01:25.547Z,8.00
2019-03-28T21:03:52.101Z,8.20
2019-03-28T21:06:19.583Z,8.60
2019-03-28T21:08:46.293Z,8.03
2019-03-28T21:11:12.505Z,8.97
2019-03-28T21:13:38.719Z,7.67
2019-03-28T21:16:04.946Z,7.90
2019-03-28T21:18:31.158Z,7.30
2019-03-28T21:20:57.404Z,7.90
2019-03-28T21:23:24.178Z,8.37
2019-03-28T21:25:50.730Z,7.60
2019-03-28T21:28:16.943Z,7.60
2019-03-28T21:30:47.629Z,7.47
2019-03-28T21:33:14.799Z,8.10
2019-03-28T21:35:39.982Z,8.40
2019-03-28T21:38:06.590Z,8.33
2019-03-28T21:40:33.095Z,7.80
2019-03-28T21:42:59.342Z,7.80
2019-03-28T21:45:25.708Z,7.23
2019-03-28T21:47:51.895Z,7.17
2019-03-28T21:50:18.171Z,7.43
2019-03-28T21:52:44.781Z,7.40
2019-03-28T21:55:11.592Z,6.93
2019-03-28T21:57:38.256Z,6.80
2019-03-28T22:00:08.889Z,7.13
2019-03-28T22:02:35.963Z,6.83
2019-03-28T22:05:04.234Z,6.90
2019-03-28T22:07:31.803Z,9.07
2019-03-28T22:09:57.947Z,7.10
2019-03-28T22:12:24.514Z,6.97
2019-03-28T22:14:50.743Z,7.17
2019-03-28T22:17:16.994Z,6.57
2019-03-28T22:19:43.207Z,7.20
2019-03-28T22:22:09.739Z,7.43
2019-03-28T22:24:39.025Z,8.30
2019-03-28T22:27:23.879Z,7.17
2019-03-28T22:29:50.103Z,7.03
2019-03-28T22:32:16.314Z,7.00
2019-03-28T22:34:42.551Z,7.07
2019-03-28T22:37:08.778Z,6.40
2019-03-28T22:39:35.050Z,6.93
2019-03-28T22:42:01.268Z,7.17
2019-03-28T22:44:27.512Z,5.80
2019-03-28T22:46:53.726Z,12.20
2019-03-28T22:49:19.944Z,7.17
2019-03-28T22:51:46.189Z,6.63
2019-03-28T22:54:12.473Z,6.73
2019-03-28T22:56:38.958Z,6.10
2019-03-28T22:59:05.177Z,5.90
2019-03-28T23:01:31.612Z,5.37
2019-03-28T23:03:58.150Z,5.80
2019-03-28T23:06:24.691Z,5.80
2019-03-28T23:08:50.927Z,6.27
2019-03-28T23:11:17.131Z,6.83
2019-03-28T23:13:43.371Z,6.70
2019-03-28T23:16:09.590Z,6.93
2019-03-28T23:18:35.821Z,6.90
2019-03-28T23:21:02.174Z,7.70
2019-03-28T23:23:28.385Z,6.70
2019-03-28T23:25:54.667Z,7.50
2019-03-28T23:28:20.870Z,6.53
2019-03-28T23:30:47.315Z,7.67
2019-03-28T23:33:13.539Z,7.50
2019-03-28T23:35:40.864Z,7.57
2019-03-28T23:38:07.506Z,7.10
2019-03-28T23:40:34.042Z,6.30
2019-03-28T23:43:00.288Z,7.00
2019-03-28T23:45:26.511Z,7.40
2019-03-28T23:47:52.762Z,9.13
2019-03-28T23:50:19.009Z,8.37
2019-03-28T23:52:45.238Z,8.00
2019-03-28T23:55:11.580Z,8.40
2019-03-28T23:57:37.794Z,8.80
